sensor_id;sensor_type;location;lat;lon;timestamp;P1;durP1;ratioP1;P2;durP2;ratioP2
25922;SDS011;13725;51.170;4.442;2022-09-17T00:02:00;10.10;;;1.83;;
25922;SDS011;13725;51.170;4.442;2022-09-17T00:04:27;7.25;;;1.50;;
25922;SDS011;13725;51.170;4.442;2022-09-17T00:06:52;8.20;;;1.80;;
25922;SDS011;13725;51.170;4.442;2022-09-17T00:09:18;19.23;;;1.85;;
25922;SDS011;13725;51.170;4.442;2022-09-17T00:11:44;20.05;;;2.55;;
25922;SDS011;13725;51.170;4.442;2022-09-17T00:14:12;13.07;;;2.28;;
25922;SDS011;13725;51.170;4.442;2022-09-17T00:16:42;15.20;;;2.17;;
25922;SDS011;13725;51.170;4.442;2022-09-17T00:19:15;11.30;;;1.65;;
25922;SDS011;13725;51.170;4.442;2022-09-17T00:21:43;12.82;;;2.55;;
25922;SDS011;13725;51.170;4.442;2022-09-17T00:24:10;9.60;;;1.30;;
25922;SDS011;13725;51.170;4.442;2022-09-17T00:26:36;5.03;;;1.30;;
25922;SDS011;13725;51.170;4.442;2022-09-17T00:29:02;6.22;;;1.17;;
25922;SDS011;13725;51.170;4.442;2022-09-17T00:31:29;18.13;;;1.75;;
25922;SDS011;13725;51.170;4.442;2022-09-17T00:33:56;12.60;;;1.58;;
25922;SDS011;13725;51.170;4.442;2022-09-17T00:36:23;9.45;;;1.80;;
25922;SDS011;13725;51.170;4.442;2022-09-17T00:38:53;8.10;;;1.60;;
25922;SDS011;13725;51.170;4.442;2022-09-17T00:41:21;8.27;;;1.45;;
25922;SDS011;13725;51.170;4.442;2022-09-17T00:43:52;12.50;;;1.85;;
25922;SDS011;13725;51.170;4.442;2022-09-17T00:49:12;12.10;;;2.00;;
25922;SDS011;13725;51.170;4.442;2022-09-17T00:51:45;15.07;;;2.08;;
25922;SDS011;13725;51.170;4.442;2022-09-17T00:54:17;7.65;;;1.35;;
25922;SDS011;13725;51.170;4.442;2022-09-17T00:56:43;10.93;;;2.20;;
25922;SDS011;13725;51.170;4.442;2022-09-17T00:59:09;11.25;;;1.67;;
25922;SDS011;13725;51.170;4.442;2022-09-17T01:01:34;10.70;;;1.25;;
25922;SDS011;13725;51.170;4.442;2022-09-17T01:04:01;9.00;;;1.35;;
25922;SDS011;13725;51.170;4.442;2022-09-17T01:26:05;11.02;;;1.50;;
25922;SDS011;13725;51.170;4.442;2022-09-17T01:31:23;10.68;;;1.52;;
25922;SDS011;13725;51.170;4.442;2022-09-17T01:37:01;6.68;;;2.03;;
25922;SDS011;13725;51.170;4.442;2022-09-17T01:39:34;12.73;;;1.50;;
25922;SDS011;13725;51.170;4.442;2022-09-17T01:42:12;11.65;;;1.70;;
25922;SDS011;13725;51.170;4.442;2022-09-17T01:47:43;9.40;;;1.42;;
25922;SDS011;13725;51.170;4.442;2022-09-17T01:50:51;15.45;;;1.63;;
25922;SDS011;13725;51.170;4.442;2022-09-17T01:53:22;19.05;;;2.00;;
25922;SDS011;13725;51.170;4.442;2022-09-17T01:55:53;9.82;;;1.33;;
25922;SDS011;13725;51.170;4.442;2022-09-17T01:58:26;16.90;;;1.95;;
25922;SDS011;13725;51.170;4.442;2022-09-17T02:00:57;15.43;;;1.30;;
25922;SDS011;13725;51.170;4.442;2022-09-17T02:03:28;11.35;;;1.55;;
25922;SDS011;13725;51.170;4.442;2022-09-17T02:06:05;13.30;;;1.52;;
25922;SDS011;13725;51.170;4.442;2022-09-17T02:08:51;12.15;;;1.20;;
25922;SDS011;13725;51.170;4.442;2022-09-17T02:11:21;9.68;;;1.55;;
25922;SDS011;13725;51.170;4.442;2022-09-17T02:13:58;16.80;;;1.65;;
25922;SDS011;13725;51.170;4.442;2022-09-17T02:16:28;12.52;;;1.60;;
25922;SDS011;13725;51.170;4.442;2022-09-17T02:21:28;12.98;;;1.10;;
25922;SDS011;13725;51.170;4.442;2022-09-17T02:24:23;22.40;;;1.60;;
25922;SDS011;13725;51.170;4.442;2022-09-17T02:26:57;13.15;;;1.65;;
25922;SDS011;13725;51.170;4.442;2022-09-17T02:29:47;9.25;;;1.67;;
25922;SDS011;13725;51.170;4.442;2022-09-17T02:32:13;13.77;;;1.75;;
25922;SDS011;13725;51.170;4.442;2022-09-17T02:34:39;9.93;;;1.40;;
25922;SDS011;13725;51.170;4.442;2022-09-17T02:37:05;12.07;;;1.30;;
25922;SDS011;13725;51.170;4.442;2022-09-17T02:39:31;11.88;;;1.48;;
25922;SDS011;13725;51.170;4.442;2022-09-17T02:45:39;22.05;;;1.85;;
25922;SDS011;13725;51.170;4.442;2022-09-17T02:56:20;16.48;;;1.60;;
25922;SDS011;13725;51.170;4.442;2022-09-17T02:59:14;15.60;;;1.75;;
25922;SDS011;13725;51.170;4.442;2022-09-17T03:01:59;13.73;;;1.73;;
25922;SDS011;13725;51.170;4.442;2022-09-17T03:04:34;14.15;;;1.65;;
25922;SDS011;13725;51.170;4.442;2022-09-17T03:07:04;11.75;;;1.73;;
25922;SDS011;13725;51.170;4.442;2022-09-17T03:09:36;14.63;;;1.65;;
25922;SDS011;13725;51.170;4.442;2022-09-17T03:12:03;18.90;;;3.17;;
25922;SDS011;13725;51.170;4.442;2022-09-17T03:14:29;10.68;;;2.50;;
25922;SDS011;13725;51.170;4.442;2022-09-17T03:16:55;17.33;;;1.90;;
25922;SDS011;13725;51.170;4.442;2022-09-17T03:19:21;9.25;;;1.70;;
25922;SDS011;13725;51.170;4.442;2022-09-17T03:21:47;15.82;;;1.85;;
25922;SDS011;13725;51.170;4.442;2022-09-17T03:24:13;18.13;;;2.17;;
25922;SDS011;13725;51.170;4.442;2022-09-17T03:26:39;7.50;;;1.73;;
25922;SDS011;13725;51.170;4.442;2022-09-17T03:29:04;16.42;;;2.30;;
25922;SDS011;13725;51.170;4.442;2022-09-17T03:31:30;10.27;;;2.08;;
25922;SDS011;13725;51.170;4.442;2022-09-17T03:33:56;19.67;;;2.35;;
25922;SDS011;13725;51.170;4.442;2022-09-17T03:36:23;17.70;;;2.10;;
25922;SDS011;13725;51.170;4.442;2022-09-17T03:38:53;22.88;;;3.03;;
25922;SDS011;13725;51.170;4.442;2022-09-17T03:41:22;12.77;;;1.67;;
25922;SDS011;13725;51.170;4.442;2022-09-17T03:43:48;23.63;;;2.05;;
25922;SDS011;13725;51.170;4.442;2022-09-17T03:46:14;22.70;;;2.33;;
25922;SDS011;13725;51.170;4.442;2022-09-17T03:48:39;13.55;;;2.45;;
25922;SDS011;13725;51.170;4.442;2022-09-17T03:51:05;21.45;;;2.33;;
25922;SDS011;13725;51.170;4.442;2022-09-17T03:53:31;22.60;;;2.88;;
25922;SDS011;13725;51.170;4.442;2022-09-17T03:56:01;15.00;;;1.85;;
25922;SDS011;13725;51.170;4.442;2022-09-17T03:58:29;23.58;;;2.50;;
25922;SDS011;13725;51.170;4.442;2022-09-17T04:00:55;16.95;;;2.90;;
25922;SDS011;13725;51.170;4.442;2022-09-17T04:03:22;15.63;;;2.15;;
25922;SDS011;13725;51.170;4.442;2022-09-17T04:05:49;17.08;;;2.42;;
25922;SDS011;13725;51.170;4.442;2022-09-17T04:08:15;14.93;;;1.50;;
25922;SDS011;13725;51.170;4.442;2022-09-17T04:10:42;12.80;;;1.48;;
25922;SDS011;13725;51.170;4.442;2022-09-17T04:13:08;17.17;;;1.95;;
25922;SDS011;13725;51.170;4.442;2022-09-17T04:15:34;22.70;;;4.07;;
25922;SDS011;13725;51.170;4.442;2022-09-17T04:18:00;22.65;;;1.90;;
25922;SDS011;13725;51.170;4.442;2022-09-17T04:20:27;20.42;;;2.40;;
25922;SDS011;13725;51.170;4.442;2022-09-17T04:22:53;13.60;;;1.67;;
25922;SDS011;13725;51.170;4.442;2022-09-17T04:25:18;15.57;;;3.17;;
25922;SDS011;13725;51.170;4.442;2022-09-17T04:27:44;25.77;;;4.22;;
25922;SDS011;13725;51.170;4.442;2022-09-17T04:30:12;17.60;;;1.77;;
25922;SDS011;13725;51.170;4.442;2022-09-17T04:32:38;22.48;;;2.25;;
25922;SDS011;13725;51.170;4.442;2022-09-17T04:35:04;19.63;;;2.03;;
25922;SDS011;13725;51.170;4.442;2022-09-17T04:37:31;17.90;;;1.60;;
25922;SDS011;13725;51.170;4.442;2022-09-17T04:39:56;11.60;;;2.00;;
25922;SDS011;13725;51.170;4.442;2022-09-17T04:42:22;15.90;;;1.80;;
25922;SDS011;13725;51.170;4.442;2022-09-17T04:44:48;16.35;;;1.88;;
25922;SDS011;13725;51.170;4.442;2022-09-17T04:47:13;15.75;;;2.42;;
25922;SDS011;13725;51.170;4.442;2022-09-17T04:49:39;12.20;;;1.90;;
25922;SDS011;13725;51.170;4.442;2022-09-17T04:52:05;23.73;;;2.60;;
25922;SDS011;13725;51.170;4.442;2022-09-17T04:54:31;9.68;;;1.85;;
25922;SDS011;13725;51.170;4.442;2022-09-17T04:56:58;15.23;;;3.03;;
25922;SDS011;13725;51.170;4.442;2022-09-17T04:59:24;22.90;;;2.28;;
25922;SDS011;13725;51.170;4.442;2022-09-17T05:01:50;13.55;;;2.38;;
25922;SDS011;13725;51.170;4.442;2022-09-17T05:04:15;12.13;;;2.30;;
25922;SDS011;13725;51.170;4.442;2022-09-17T05:06:41;13.98;;;1.80;;
25922;SDS011;13725;51.170;4.442;2022-09-17T05:09:07;14.88;;;1.77;;
25922;SDS011;13725;51.170;4.442;2022-09-17T05:11:33;9.60;;;1.73;;
25922;SDS011;13725;51.170;4.442;2022-09-17T05:13:58;21.88;;;2.65;;
25922;SDS011;13725;51.170;4.442;2022-09-17T05:16:26;11.27;;;1.48;;
25922;SDS011;13725;51.170;4.442;2022-09-17T05:18:52;9.25;;;1.60;;
25922;SDS011;13725;51.170;4.442;2022-09-17T05:21:18;10.88;;;1.70;;
25922;SDS011;13725;51.170;4.442;2022-09-17T05:23:44;12.13;;;1.77;;
25922;SDS011;13725;51.170;4.442;2022-09-17T05:26:10;7.22;;;1.23;;
25922;SDS011;13725;51.170;4.442;2022-09-17T05:28:37;10.13;;;1.70;;
25922;SDS011;13725;51.170;4.442;2022-09-17T05:31:03;14.13;;;1.45;;
25922;SDS011;13725;51.170;4.442;2022-09-17T05:33:28;13.15;;;1.58;;
25922;SDS011;13725;51.170;4.442;2022-09-17T05:35:54;8.57;;;1.02;;
25922;SDS011;13725;51.170;4.442;2022-09-17T05:38:20;6.60;;;1.00;;
25922;SDS011;13725;51.170;4.442;2022-09-17T05:40:46;9.77;;;1.27;;
25922;SDS011;13725;51.170;4.442;2022-09-17T05:43:13;11.98;;;1.30;;
25922;SDS011;13725;51.170;4.442;2022-09-17T05:45:39;20.15;;;1.88;;
25922;SDS011;13725;51.170;4.442;2022-09-17T05:48:06;11.38;;;1.50;;
25922;SDS011;13725;51.170;4.442;2022-09-17T05:50:34;6.25;;;1.17;;
25922;SDS011;13725;51.170;4.442;2022-09-17T05:53:06;6.15;;;1.10;;
25922;SDS011;13725;51.170;4.442;2022-09-17T05:55:35;9.45;;;1.27;;
25922;SDS011;13725;51.170;4.442;2022-09-17T05:58:22;8.85;;;1.35;;
25922;SDS011;13725;51.170;4.442;2022-09-17T06:00:47;12.15;;;1.42;;
25922;SDS011;13725;51.170;4.442;2022-09-17T06:03:13;9.52;;;1.13;;
25922;SDS011;13725;51.170;4.442;2022-09-17T06:05:40;9.48;;;1.45;;
25922;SDS011;13725;51.170;4.442;2022-09-17T06:08:07;7.60;;;0.95;;
25922;SDS011;13725;51.170;4.442;2022-09-17T06:10:36;9.90;;;0.95;;
25922;SDS011;13725;51.170;4.442;2022-09-17T06:13:03;8.13;;;0.95;;
25922;SDS011;13725;51.170;4.442;2022-09-17T06:15:28;13.40;;;1.52;;
25922;SDS011;13725;51.170;4.442;2022-09-17T06:17:55;9.68;;;1.20;;
25922;SDS011;13725;51.170;4.442;2022-09-17T06:20:21;8.88;;;1.30;;
25922;SDS011;13725;51.170;4.442;2022-09-17T06:22:47;9.85;;;1.15;;
25922;SDS011;13725;51.170;4.442;2022-09-17T06:25:12;8.88;;;1.02;;
25922;SDS011;13725;51.170;4.442;2022-09-17T06:27:39;6.15;;;1.35;;
25922;SDS011;13725;51.170;4.442;2022-09-17T06:30:05;6.57;;;0.98;;
25922;SDS011;13725;51.170;4.442;2022-09-17T06:32:31;9.57;;;1.23;;
25922;SDS011;13725;51.170;4.442;2022-09-17T06:34:57;11.85;;;1.70;;
25922;SDS011;13725;51.170;4.442;2022-09-17T06:37:27;14.85;;;1.92;;
25922;SDS011;13725;51.170;4.442;2022-09-17T06:39:53;4.60;;;1.15;;
25922;SDS011;13725;51.170;4.442;2022-09-17T06:42:20;9.65;;;1.75;;
25922;SDS011;13725;51.170;4.442;2022-09-17T06:44:46;7.97;;;1.30;;
25922;SDS011;13725;51.170;4.442;2022-09-17T06:47:12;6.72;;;1.50;;
25922;SDS011;13725;51.170;4.442;2022-09-17T06:49:38;9.00;;;1.48;;
25922;SDS011;13725;51.170;4.442;2022-09-17T06:52:03;7.05;;;1.38;;
25922;SDS011;13725;51.170;4.442;2022-09-17T06:54:29;5.05;;;1.50;;
25922;SDS011;13725;51.170;4.442;2022-09-17T06:56:55;21.60;;;1.95;;
25922;SDS011;13725;51.170;4.442;2022-09-17T06:59:21;10.00;;;1.48;;
25922;SDS011;13725;51.170;4.442;2022-09-17T07:01:46;10.75;;;1.73;;
25922;SDS011;13725;51.170;4.442;2022-09-17T07:04:13;11.15;;;1.67;;
25922;SDS011;13725;51.170;4.442;2022-09-17T07:06:38;17.08;;;3.08;;
25922;SDS011;13725;51.170;4.442;2022-09-17T07:09:04;11.75;;;1.60;;
25922;SDS011;13725;51.170;4.442;2022-09-17T07:11:31;13.52;;;1.90;;
25922;SDS011;13725;51.170;4.442;2022-09-17T07:13:57;12.15;;;1.40;;
25922;SDS011;13725;51.170;4.442;2022-09-17T07:16:23;16.85;;;1.73;;
25922;SDS011;13725;51.170;4.442;2022-09-17T07:18:51;10.60;;;1.38;;
25922;SDS011;13725;51.170;4.442;2022-09-17T07:21:17;10.57;;;1.55;;
25922;SDS011;13725;51.170;4.442;2022-09-17T07:23:42;8.30;;;1.30;;
25922;SDS011;13725;51.170;4.442;2022-09-17T07:26:13;8.48;;;2.10;;
25922;SDS011;13725;51.170;4.442;2022-09-17T07:28:39;8.52;;;1.83;;
25922;SDS011;13725;51.170;4.442;2022-09-17T07:31:06;9.90;;;1.42;;
25922;SDS011;13725;51.170;4.442;2022-09-17T07:33:33;12.90;;;1.40;;
25922;SDS011;13725;51.170;4.442;2022-09-17T07:36:00;10.68;;;1.52;;
25922;SDS011;13725;51.170;4.442;2022-09-17T07:38:28;8.35;;;1.45;;
25922;SDS011;13725;51.170;4.442;2022-09-17T07:40:59;12.05;;;2.10;;
25922;SDS011;13725;51.170;4.442;2022-09-17T07:43:26;9.27;;;1.60;;
25922;SDS011;13725;51.170;4.442;2022-09-17T07:45:55;8.63;;;1.10;;
25922;SDS011;13725;51.170;4.442;2022-09-17T07:48:22;10.38;;;1.95;;
25922;SDS011;13725;51.170;4.442;2022-09-17T07:50:48;11.68;;;2.83;;
25922;SDS011;13725;51.170;4.442;2022-09-17T07:53:14;7.50;;;1.25;;
25922;SDS011;13725;51.170;4.442;2022-09-17T07:55:40;5.45;;;1.20;;
25922;SDS011;13725;51.170;4.442;2022-09-17T07:58:07;5.53;;;1.20;;
25922;SDS011;13725;51.170;4.442;2022-09-17T08:00:33;5.95;;;1.90;;
25922;SDS011;13725;51.170;4.442;2022-09-17T08:02:59;7.30;;;1.52;;
25922;SDS011;13725;51.170;4.442;2022-09-17T08:05:25;2.80;;;1.20;;
25922;SDS011;13725;51.170;4.442;2022-09-17T08:07:51;9.85;;;1.67;;
25922;SDS011;13725;51.170;4.442;2022-09-17T08:10:19;11.27;;;1.63;;
25922;SDS011;13725;51.170;4.442;2022-09-17T08:12:47;6.55;;;1.27;;
25922;SDS011;13725;51.170;4.442;2022-09-17T08:15:16;6.55;;;1.40;;
25922;SDS011;13725;51.170;4.442;2022-09-17T08:17:43;6.20;;;1.60;;
25922;SDS011;13725;51.170;4.442;2022-09-17T08:20:10;7.22;;;1.58;;
25922;SDS011;13725;51.170;4.442;2022-09-17T08:22:40;6.93;;;1.13;;
25922;SDS011;13725;51.170;4.442;2022-09-17T08:25:06;9.02;;;1.80;;
25922;SDS011;13725;51.170;4.442;2022-09-17T08:27:33;8.25;;;1.20;;
25922;SDS011;13725;51.170;4.442;2022-09-17T08:29:59;4.57;;;1.15;;
25922;SDS011;13725;51.170;4.442;2022-09-17T08:32:24;7.97;;;1.60;;
25922;SDS011;13725;51.170;4.442;2022-09-17T08:34:53;7.70;;;1.35;;
25922;SDS011;13725;51.170;4.442;2022-09-17T08:37:19;9.20;;;1.75;;
25922;SDS011;13725;51.170;4.442;2022-09-17T08:39:45;24.02;;;3.40;;
25922;SDS011;13725;51.170;4.442;2022-09-17T08:44:52;8.93;;;1.70;;
25922;SDS011;13725;51.170;4.442;2022-09-17T08:50:01;9.68;;;1.55;;
25922;SDS011;13725;51.170;4.442;2022-09-17T09:00:47;12.43;;;2.25;;
25922;SDS011;13725;51.170;4.442;2022-09-17T09:03:32;9.65;;;1.77;;
25922;SDS011;13725;51.170;4.442;2022-09-17T09:06:20;4.43;;;0.90;;
25922;SDS011;13725;51.170;4.442;2022-09-17T09:09:00;6.28;;;1.08;;
25922;SDS011;13725;51.170;4.442;2022-09-17T09:11:30;3.38;;;0.73;;
25922;SDS011;13725;51.170;4.442;2022-09-17T09:16:33;5.45;;;0.93;;
25922;SDS011;13725;51.170;4.442;2022-09-17T09:28:07;3.65;;;0.90;;
25922;SDS011;13725;51.170;4.442;2022-09-17T09:30:22;4.22;;;0.70;;
25922;SDS011;13725;51.170;4.442;2022-09-17T09:35:42;6.30;;;0.93;;
25922;SDS011;13725;51.170;4.442;2022-09-17T09:40:57;6.55;;;1.00;;
25922;SDS011;13725;51.170;4.442;2022-09-17T09:43:52;2.17;;;0.43;;
25922;SDS011;13725;51.170;4.442;2022-09-17T09:48:58;9.38;;;0.75;;
25922;SDS011;13725;51.170;4.442;2022-09-17T09:51:47;3.28;;;0.88;;
25922;SDS011;13725;51.170;4.442;2022-09-17T09:57:16;5.25;;;0.90;;
25922;SDS011;13725;51.170;4.442;2022-09-17T09:59:44;6.20;;;0.98;;
25922;SDS011;13725;51.170;4.442;2022-09-17T10:02:09;8.23;;;0.85;;
25922;SDS011;13725;51.170;4.442;2022-09-17T10:04:36;6.18;;;0.88;;
25922;SDS011;13725;51.170;4.442;2022-09-17T10:07:06;6.65;;;1.20;;
25922;SDS011;13725;51.170;4.442;2022-09-17T10:09:34;5.32;;;0.98;;
25922;SDS011;13725;51.170;4.442;2022-09-17T10:12:03;3.60;;;0.63;;
25922;SDS011;13725;51.170;4.442;2022-09-17T10:14:42;2.40;;;0.43;;
25922;SDS011;13725;51.170;4.442;2022-09-17T10:19:44;3.05;;;0.80;;
25922;SDS011;13725;51.170;4.442;2022-09-17T10:22:23;2.88;;;0.60;;
25922;SDS011;13725;51.170;4.442;2022-09-17T10:24:58;5.50;;;0.93;;
25922;SDS011;13725;51.170;4.442;2022-09-17T10:27:25;5.45;;;1.08;;
25922;SDS011;13725;51.170;4.442;2022-09-17T10:32:33;6.75;;;1.10;;
25922;SDS011;13725;51.170;4.442;2022-09-17T10:35:44;3.40;;;0.60;;
25922;SDS011;13725;51.170;4.442;2022-09-17T10:37:47;4.68;;;0.60;;
25922;SDS011;13725;51.170;4.442;2022-09-17T10:42:46;3.78;;;0.77;;
25922;SDS011;13725;51.170;4.442;2022-09-17T10:45:23;3.05;;;0.55;;
25922;SDS011;13725;51.170;4.442;2022-09-17T10:47:50;2.72;;;0.60;;
25922;SDS011;13725;51.170;4.442;2022-09-17T10:50:17;3.90;;;0.40;;
25922;SDS011;13725;51.170;4.442;2022-09-17T10:52:55;3.97;;;1.15;;
25922;SDS011;13725;51.170;4.442;2022-09-17T10:55:32;7.25;;;1.13;;
25922;SDS011;13725;51.170;4.442;2022-09-17T10:58:03;2.80;;;0.85;;
25922;SDS011;13725;51.170;4.442;2022-09-17T11:11:28;4.65;;;0.50;;
25922;SDS011;13725;51.170;4.442;2022-09-17T11:22:18;4.95;;;0.80;;
25922;SDS011;13725;51.170;4.442;2022-09-17T11:24:59;1.50;;;0.57;;
25922;SDS011;13725;51.170;4.442;2022-09-17T11:27:48;6.45;;;1.35;;
25922;SDS011;13725;51.170;4.442;2022-09-17T11:30:27;6.90;;;0.95;;
25922;SDS011;13725;51.170;4.442;2022-09-17T11:35:46;7.80;;;1.23;;
25922;SDS011;13725;51.170;4.442;2022-09-17T11:41:06;6.15;;;1.13;;
25922;SDS011;13725;51.170;4.442;2022-09-17T11:43:37;5.65;;;1.13;;
25922;SDS011;13725;51.170;4.442;2022-09-17T11:46:19;3.22;;;1.10;;
25922;SDS011;13725;51.170;4.442;2022-09-17T11:49:04;5.95;;;1.02;;
25922;SDS011;13725;51.170;4.442;2022-09-17T11:51:46;4.78;;;1.00;;
25922;SDS011;13725;51.170;4.442;2022-09-17T11:57:04;7.78;;;1.05;;
25922;SDS011;13725;51.170;4.442;2022-09-17T11:59:39;9.65;;;1.17;;
25922;SDS011;13725;51.170;4.442;2022-09-17T12:05:42;8.82;;;0.88;;
25922;SDS011;13725;51.170;4.442;2022-09-17T12:08:20;8.30;;;1.50;;
25922;SDS011;13725;51.170;4.442;2022-09-17T12:11:07;9.27;;;2.00;;
25922;SDS011;13725;51.170;4.442;2022-09-17T12:13:55;8.80;;;1.60;;
25922;SDS011;13725;51.170;4.442;2022-09-17T12:24:25;7.57;;;1.70;;
25922;SDS011;13725;51.170;4.442;2022-09-17T12:30:01;10.90;;;1.70;;
25922;SDS011;13725;51.170;4.442;2022-09-17T12:41:33;3.90;;;1.30;;
25922;SDS011;13725;51.170;4.442;2022-09-17T12:44:39;6.20;;;1.70;;
25922;SDS011;13725;51.170;4.442;2022-09-17T12:50:18;9.25;;;1.80;;
25922;SDS011;13725;51.170;4.442;2022-09-17T12:53:27;10.38;;;1.95;;
25922;SDS011;13725;51.170;4.442;2022-09-17T13:07:11;10.75;;;1.75;;
25922;SDS011;13725;51.170;4.442;2022-09-17T13:21:08;14.27;;;1.65;;
25922;SDS011;13725;51.170;4.442;2022-09-17T13:23:45;11.70;;;1.33;;
25922;SDS011;13725;51.170;4.442;2022-09-17T13:26:14;5.10;;;1.45;;
25922;SDS011;13725;51.170;4.442;2022-09-17T13:28:44;7.40;;;1.20;;
25922;SDS011;13725;51.170;4.442;2022-09-17T13:33:59;10.30;;;2.08;;
25922;SDS011;13725;51.170;4.442;2022-09-17T13:39:00;7.63;;;1.17;;
25922;SDS011;13725;51.170;4.442;2022-09-17T13:41:27;7.20;;;1.80;;
25922;SDS011;13725;51.170;4.442;2022-09-17T13:43:56;6.93;;;1.00;;
25922;SDS011;13725;51.170;4.442;2022-09-17T13:46:22;9.63;;;1.20;;
25922;SDS011;13725;51.170;4.442;2022-09-17T13:48:51;7.07;;;1.52;;
25922;SDS011;13725;51.170;4.442;2022-09-17T13:53:58;3.55;;;0.93;;
25922;SDS011;13725;51.170;4.442;2022-09-17T13:56:33;8.07;;;1.23;;
25922;SDS011;13725;51.170;4.442;2022-09-17T13:59:14;4.15;;;1.00;;
25922;SDS011;13725;51.170;4.442;2022-09-17T14:02:00;4.75;;;0.70;;
25922;SDS011;13725;51.170;4.442;2022-09-17T14:12:58;3.80;;;0.77;;
25922;SDS011;13725;51.170;4.442;2022-09-17T14:18:00;4.95;;;0.70;;
25922;SDS011;13725;51.170;4.442;2022-09-17T14:20:46;3.50;;;0.60;;
25922;SDS011;13725;51.170;4.442;2022-09-17T14:23:13;4.47;;;0.60;;
25922;SDS011;13725;51.170;4.442;2022-09-17T14:25:41;3.28;;;0.80;;
25922;SDS011;13725;51.170;4.442;2022-09-17T14:31:17;3.70;;;0.50;;
25922;SDS011;13725;51.170;4.442;2022-09-17T14:33:49;4.05;;;0.57;;
25922;SDS011;13725;51.170;4.442;2022-09-17T14:36:16;3.90;;;0.50;;
25922;SDS011;13725;51.170;4.442;2022-09-17T14:38:45;6.13;;;0.63;;
25922;SDS011;13725;51.170;4.442;2022-09-17T14:43:43;4.88;;;0.65;;
25922;SDS011;13725;51.170;4.442;2022-09-17T14:46:36;3.67;;;0.50;;
25922;SDS011;13725;51.170;4.442;2022-09-17T14:51:53;5.50;;;0.77;;
25922;SDS011;13725;51.170;4.442;2022-09-17T14:54:24;3.33;;;0.80;;
25922;SDS011;13725;51.170;4.442;2022-09-17T14:56:51;8.52;;;1.73;;
25922;SDS011;13725;51.170;4.442;2022-09-17T14:59:35;6.72;;;0.80;;
25922;SDS011;13725;51.170;4.442;2022-09-17T15:07:46;9.27;;;1.05;;
25922;SDS011;13725;51.170;4.442;2022-09-17T15:10:19;5.53;;;1.00;;
25922;SDS011;13725;51.170;4.442;2022-09-17T15:12:46;7.18;;;1.25;;
25922;SDS011;13725;51.170;4.442;2022-09-17T15:15:16;8.65;;;1.02;;
25922;SDS011;13725;51.170;4.442;2022-09-17T15:17:44;9.68;;;1.45;;
25922;SDS011;13725;51.170;4.442;2022-09-17T15:20:14;6.30;;;1.08;;
25922;SDS011;13725;51.170;4.442;2022-09-17T15:22:44;5.47;;;0.93;;
25922;SDS011;13725;51.170;4.442;2022-09-17T15:25:14;8.02;;;1.27;;
25922;SDS011;13725;51.170;4.442;2022-09-17T15:27:50;9.45;;;1.40;;
25922;SDS011;13725;51.170;4.442;2022-09-17T15:30:21;8.20;;;1.08;;
25922;SDS011;13725;51.170;4.442;2022-09-17T15:32:57;4.60;;;1.08;;
25922;SDS011;13725;51.170;4.442;2022-09-17T15:35:25;5.30;;;0.85;;
25922;SDS011;13725;51.170;4.442;2022-09-17T15:37:55;8.10;;;2.03;;
25922;SDS011;13725;51.170;4.442;2022-09-17T15:40:27;6.30;;;1.02;;
25922;SDS011;13725;51.170;4.442;2022-09-17T15:43:13;7.63;;;1.58;;
25922;SDS011;13725;51.170;4.442;2022-09-17T15:45:52;7.25;;;1.15;;
25922;SDS011;13725;51.170;4.442;2022-09-17T15:48:35;7.22;;;1.10;;
25922;SDS011;13725;51.170;4.442;2022-09-17T15:51:03;7.85;;;1.30;;
25922;SDS011;13725;51.170;4.442;2022-09-17T15:53:39;7.93;;;1.60;;
25922;SDS011;13725;51.170;4.442;2022-09-17T15:56:44;6.10;;;1.40;;
25922;SDS011;13725;51.170;4.442;2022-09-17T15:59:21;9.35;;;1.40;;
25922;SDS011;13725;51.170;4.442;2022-09-17T16:01:55;6.97;;;1.98;;
25922;SDS011;13725;51.170;4.442;2022-09-17T16:06:58;6.22;;;1.40;;
25922;SDS011;13725;51.170;4.442;2022-09-17T16:09:48;10.13;;;1.90;;
25922;SDS011;13725;51.170;4.442;2022-09-17T16:12:19;3.55;;;0.93;;
25922;SDS011;13725;51.170;4.442;2022-09-17T16:14:53;10.70;;;1.58;;
25922;SDS011;13725;51.170;4.442;2022-09-17T16:17:21;10.32;;;1.27;;
25922;SDS011;13725;51.170;4.442;2022-09-17T16:19:49;14.10;;;1.30;;
25922;SDS011;13725;51.170;4.442;2022-09-17T16:22:15;6.70;;;1.30;;
25922;SDS011;13725;51.170;4.442;2022-09-17T16:24:41;10.32;;;1.60;;
25922;SDS011;13725;51.170;4.442;2022-09-17T16:27:09;14.35;;;2.13;;
25922;SDS011;13725;51.170;4.442;2022-09-17T16:29:46;7.00;;;1.65;;
25922;SDS011;13725;51.170;4.442;2022-09-17T16:32:13;10.35;;;1.65;;
25922;SDS011;13725;51.170;4.442;2022-09-17T16:34:39;5.05;;;1.13;;
25922;SDS011;13725;51.170;4.442;2022-09-17T16:37:04;10.05;;;1.58;;
25922;SDS011;13725;51.170;4.442;2022-09-17T16:39:30;5.72;;;1.33;;
25922;SDS011;13725;51.170;4.442;2022-09-17T16:41:56;9.73;;;1.42;;
25922;SDS011;13725;51.170;4.442;2022-09-17T16:44:22;10.43;;;1.15;;
25922;SDS011;13725;51.170;4.442;2022-09-17T16:46:47;7.38;;;1.50;;
25922;SDS011;13725;51.170;4.442;2022-09-17T16:49:13;12.50;;;2.30;;
25922;SDS011;13725;51.170;4.442;2022-09-17T16:51:39;8.35;;;1.27;;
25922;SDS011;13725;51.170;4.442;2022-09-17T16:54:05;10.45;;;2.08;;
25922;SDS011;13725;51.170;4.442;2022-09-17T16:56:32;9.45;;;1.48;;
25922;SDS011;13725;51.170;4.442;2022-09-17T16:58:57;5.30;;;1.15;;
25922;SDS011;13725;51.170;4.442;2022-09-17T17:01:23;7.10;;;1.30;;
25922;SDS011;13725;51.170;4.442;2022-09-17T17:03:49;9.23;;;1.58;;
25922;SDS011;13725;51.170;4.442;2022-09-17T17:06:17;9.48;;;1.38;;
25922;SDS011;13725;51.170;4.442;2022-09-17T17:08:45;12.63;;;2.22;;
25922;SDS011;13725;51.170;4.442;2022-09-17T17:11:11;8.50;;;1.73;;
25922;SDS011;13725;51.170;4.442;2022-09-17T17:13:37;10.25;;;1.23;;
25922;SDS011;13725;51.170;4.442;2022-09-17T17:16:07;12.68;;;1.90;;
25922;SDS011;13725;51.170;4.442;2022-09-17T17:18:34;11.55;;;1.95;;
25922;SDS011;13725;51.170;4.442;2022-09-17T17:21:07;12.93;;;1.67;;
25922;SDS011;13725;51.170;4.442;2022-09-17T17:25:59;4.50;;;0.98;;
25922;SDS011;13725;51.170;4.442;2022-09-17T17:28:25;7.35;;;0.88;;
25922;SDS011;13725;51.170;4.442;2022-09-17T17:30:51;6.80;;;1.13;;
25922;SDS011;13725;51.170;4.442;2022-09-17T17:33:19;4.15;;;0.90;;
25922;SDS011;13725;51.170;4.442;2022-09-17T17:35:45;8.20;;;1.48;;
25922;SDS011;13725;51.170;4.442;2022-09-17T17:38:10;6.13;;;0.90;;
25922;SDS011;13725;51.170;4.442;2022-09-17T17:40:36;6.60;;;0.90;;
25922;SDS011;13725;51.170;4.442;2022-09-17T17:43:02;3.58;;;1.00;;
25922;SDS011;13725;51.170;4.442;2022-09-17T17:45:27;5.80;;;1.20;;
25922;SDS011;13725;51.170;4.442;2022-09-17T17:47:53;5.75;;;1.17;;
25922;SDS011;13725;51.170;4.442;2022-09-17T17:50:19;5.70;;;1.08;;
25922;SDS011;13725;51.170;4.442;2022-09-17T17:52:45;9.80;;;1.25;;
25922;SDS011;13725;51.170;4.442;2022-09-17T17:55:12;5.65;;;1.05;;
25922;SDS011;13725;51.170;4.442;2022-09-17T17:57:39;3.08;;;0.80;;
25922;SDS011;13725;51.170;4.442;2022-09-17T18:00:06;7.05;;;0.88;;
25922;SDS011;13725;51.170;4.442;2022-09-17T18:02:37;7.75;;;1.10;;
25922;SDS011;13725;51.170;4.442;2022-09-17T18:05:03;10.70;;;1.10;;
25922;SDS011;13725;51.170;4.442;2022-09-17T18:07:29;5.20;;;1.00;;
25922;SDS011;13725;51.170;4.442;2022-09-17T18:09:55;4.93;;;1.00;;
25922;SDS011;13725;51.170;4.442;2022-09-17T18:12:21;8.27;;;1.45;;
25922;SDS011;13725;51.170;4.442;2022-09-17T18:14:46;8.40;;;1.50;;
25922;SDS011;13725;51.170;4.442;2022-09-17T18:17:12;5.78;;;1.40;;
25922;SDS011;13725;51.170;4.442;2022-09-17T18:19:38;3.95;;;1.60;;
25922;SDS011;13725;51.170;4.442;2022-09-17T18:22:04;4.90;;;1.25;;
25922;SDS011;13725;51.170;4.442;2022-09-17T18:24:29;7.60;;;1.50;;